sensor_id;sensor_type;location;lat;lon;timestamp;temperature;humidity
16825;DHT22;8529;48.108;-1.706;2023-07-31T00:06:53;18.70;99.90
16825;DHT22;8529;48.108;-1.706;2023-07-31T00:36:19;18.80;99.90
16825;DHT22;8529;48.108;-1.706;2023-07-31T00:41:14;17.40;99.90
16825;DHT22;8529;48.108;-1.706;2023-07-31T00:43:41;18.60;99.90
16825;DHT22;8529;48.108;-1.706;2023-07-31T00:46:08;18.70;99.90
16825;DHT22;8529;48.108;-1.706;2023-07-31T00:48:35;18.70;99.90
16825;DHT22;8529;48.108;-1.706;2023-07-31T00:51:03;18.70;99.90
16825;DHT22;8529;48.108;-1.706;2023-07-31T00:53:30;18.70;99.90
16825;DHT22;8529;48.108;-1.706;2023-07-31T00:55:57;18.70;99.90
16825;DHT22;8529;48.108;-1.706;2023-07-31T00:58:26;18.70;99.90
16825;DHT22;8529;48.108;-1.706;2023-07-31T01:00:53;18.70;99.90
16825;DHT22;8529;48.108;-1.706;2023-07-31T01:03:20;18.80;99.90
16825;DHT22;8529;48.108;-1.706;2023-07-31T01:05:55;18.80;99.90
16825;DHT22;8529;48.108;-1.706;2023-07-31T01:08:32;18.80;99.90
16825;DHT22;8529;48.108;-1.706;2023-07-31T01:11:02;18.80;99.90
16825;DHT22;8529;48.108;-1.706;2023-07-31T01:13:33;18.70;99.90
16825;DHT22;8529;48.108;-1.706;2023-07-31T01:16:00;18.70;99.90
16825;DHT22;8529;48.108;-1.706;2023-07-31T01:18:27;18.70;99.90
16825;DHT22;8529;48.108;-1.706;2023-07-31T01:20:58;18.70;99.90
16825;DHT22;8529;48.108;-1.706;2023-07-31T01:23:51;18.70;99.90
16825;DHT22;8529;48.108;-1.706;2023-07-31T01:26:25;18.70;99.90
16825;DHT22;8529;48.108;-1.706;2023-07-31T01:29:07;18.70;99.90
16825;DHT22;8529;48.108;-1.706;2023-07-31T01:31:36;18.70;99.90
16825;DHT22;8529;48.108;-1.706;2023-07-31T01:36:33;18.70;99.90
16825;DHT22;8529;48.108;-1.706;2023-07-31T01:41:29;18.50;99.90
16825;DHT22;8529;48.108;-1.706;2023-07-31T01:43:56;18.80;99.90
16825;DHT22;8529;48.108;-1.706;2023-07-31T01:46:23;18.70;99.90
16825;DHT22;8529;48.108;-1.706;2023-07-31T01:48:50;18.80;99.90
16825;DHT22;8529;48.108;-1.706;2023-07-31T01:51:17;18.90;99.90
16825;DHT22;8529;48.108;-1.706;2023-07-31T01:53:43;18.80;99.90
16825;DHT22;8529;48.108;-1.706;2023-07-31T02:01:06;18.60;99.90
16825;DHT22;8529;48.108;-1.706;2023-07-31T02:08:27;19.80;99.90
16825;DHT22;8529;48.108;-1.706;2023-07-31T02:10:54;18.80;99.90
16825;DHT22;8529;48.108;-1.706;2023-07-31T02:25:44;18.70;99.90
16825;DHT22;8529;48.108;-1.706;2023-07-31T02:28:11;18.50;99.90
16825;DHT22;8529;48.108;-1.706;2023-07-31T02:30:38;18.50;99.90
16825;DHT22;8529;48.108;-1.706;2023-07-31T02:33:06;18.50;99.90
16825;DHT22;8529;48.108;-1.706;2023-07-31T02:38:00;18.70;99.90
16825;DHT22;8529;48.108;-1.706;2023-07-31T02:40:27;18.50;99.90
16825;DHT22;8529;48.108;-1.706;2023-07-31T02:42:54;18.50;99.90
16825;DHT22;8529;48.108;-1.706;2023-07-31T02:45:21;18.60;99.90
16825;DHT22;8529;48.108;-1.706;2023-07-31T02:47:48;18.60;99.90
16825;DHT22;8529;48.108;-1.706;2023-07-31T02:50:16;18.50;99.90
16825;DHT22;8529;48.108;-1.706;2023-07-31T02:52:43;18.60;99.90
16825;DHT22;8529;48.108;-1.706;2023-07-31T02:55:10;18.60;99.90
16825;DHT22;8529;48.108;-1.706;2023-07-31T02:57:37;18.50;99.90
16825;DHT22;8529;48.108;-1.706;2023-07-31T03:00:05;18.50;99.90
16825;DHT22;8529;48.108;-1.706;2023-07-31T03:02:32;18.50;99.90
16825;DHT22;8529;48.108;-1.706;2023-07-31T03:04:59;18.60;99.90
16825;DHT22;8529;48.108;-1.706;2023-07-31T03:07:27;18.50;99.90
16825;DHT22;8529;48.108;-1.706;2023-07-31T03:09:55;18.60;99.90
16825;DHT22;8529;48.108;-1.706;2023-07-31T03:12:22;18.60;99.90
16825;DHT22;8529;48.108;-1.706;2023-07-31T03:14:49;18.50;99.90
16825;DHT22;8529;48.108;-1.706;2023-07-31T03:17:16;18.50;99.90
16825;DHT22;8529;48.108;-1.706;2023-07-31T03:19:43;18.50;99.90
16825;DHT22;8529;48.108;-1.706;2023-07-31T03:22:10;18.60;99.90
16825;DHT22;8529;48.108;-1.706;2023-07-31T03:24:38;18.50;99.90
16825;DHT22;8529;48.108;-1.706;2023-07-31T03:27:05;18.50;99.90
16825;DHT22;8529;48.108;-1.706;2023-07-31T03:29:32;18.60;99.90
16825;DHT22;8529;48.108;-1.706;2023-07-31T03:31:59;18.60;99.90
16825;DHT22;8529;48.108;-1.706;2023-07-31T03:34:26;18.60;99.90
16825;DHT22;8529;48.108;-1.706;2023-07-31T03:36:53;18.60;99.90
16825;DHT22;8529;48.108;-1.706;2023-07-31T03:41:49;18.70;99.90
16825;DHT22;8529;48.108;-1.706;2023-07-31T03:44:15;18.50;99.90
16825;DHT22;8529;48.108;-1.706;2023-07-31T03:46:42;18.50;99.90
16825;DHT22;8529;48.108;-1.706;2023-07-31T03:49:09;18.50;99.90
16825;DHT22;8529;48.108;-1.706;2023-07-31T03:51:36;18.50;99.90
16825;DHT22;8529;48.108;-1.706;2023-07-31T03:54:03;18.50;99.90
16825;DHT22;8529;48.108;-1.706;2023-07-31T03:56:30;18.50;99.90
16825;DHT22;8529;48.108;-1.706;2023-07-31T03:58:58;18.50;99.90
16825;DHT22;8529;48.108;-1.706;2023-07-31T04:01:26;18.50;99.90
16825;DHT22;8529;48.108;-1.706;2023-07-31T04:08:47;18.50;99.90
16825;DHT22;8529;48.108;-1.706;2023-07-31T04:25:59;18.60;99.90
16825;DHT22;8529;48.108;-1.706;2023-07-31T04:28:26;18.50;99.90
16825;DHT22;8529;48.108;-1.706;2023-07-31T04:30:52;18.50;99.90
16825;DHT22;8529;48.108;-1.706;2023-07-31T04:33:21;18.50;99.90
16825;DHT22;8529;48.108;-1.706;2023-07-31T04:35:51;18.50;99.90
16825;DHT22;8529;48.108;-1.706;2023-07-31T04:38:18;18.50;99.90
16825;DHT22;8529;48.108;-1.706;2023-07-31T04:40:45;18.50;99.90
16825;DHT22;8529;48.108;-1.706;2023-07-31T04:43:12;18.60;99.90
16825;DHT22;8529;48.108;-1.706;2023-07-31T04:45:41;18.60;99.90
16825;DHT22;8529;48.108;-1.706;2023-07-31T04:48:08;18.60;99.90
16825;DHT22;8529;48.108;-1.706;2023-07-31T04:50:37;18.60;99.90
16825;DHT22;8529;48.108;-1.706;2023-07-31T04:53:03;18.60;99.90
16825;DHT22;8529;48.108;-1.706;2023-07-31T04:55:30;18.60;99.90
16825;DHT22;8529;48.108;-1.706;2023-07-31T04:57:58;18.60;99.90
16825;DHT22;8529;48.108;-1.706;2023-07-31T05:00:25;18.60;99.90
16825;DHT22;8529;48.108;-1.706;2023-07-31T05:02:52;18.60;99.90
16825;DHT22;8529;48.108;-1.706;2023-07-31T05:05:19;18.60;99.90
16825;DHT22;8529;48.108;-1.706;2023-07-31T05:07:47;18.60;99.90
16825;DHT22;8529;48.108;-1.706;2023-07-31T05:10:14;18.60;99.90
16825;DHT22;8529;48.108;-1.706;2023-07-31T05:12:41;18.60;99.90
16825;DHT22;8529;48.108;-1.706;2023-07-31T05:15:09;18.60;99.90
16825;DHT22;8529;48.108;-1.706;2023-07-31T05:17:36;18.60;99.90
16825;DHT22;8529;48.108;-1.706;2023-07-31T05:20:03;18.60;99.90
16825;DHT22;8529;48.108;-1.706;2023-07-31T05:24:58;18.60;99.90
16825;DHT22;8529;48.108;-1.706;2023-07-31T05:27:25;18.60;99.90
16825;DHT22;8529;48.108;-1.706;2023-07-31T05:29:52;18.60;99.90
16825;DHT22;8529;48.108;-1.706;2023-07-31T05:32:19;18.60;99.90
16825;DHT22;8529;48.108;-1.706;2023-07-31T05:34:46;18.60;99.90
16825;DHT22;8529;48.108;-1.706;2023-07-31T05:37:14;18.70;99.90
16825;DHT22;8529;48.108;-1.706;2023-07-31T05:39:40;18.70;99.90
16825;DHT22;8529;48.108;-1.706;2023-07-31T05:44:36;18.70;99.90
16825;DHT22;8529;48.108;-1.706;2023-07-31T05:47:03;18.70;99.90
16825;DHT22;8529;48.108;-1.706;2023-07-31T05:49:30;18.70;99.90
16825;DHT22;8529;48.108;-1.706;2023-07-31T05:51:57;18.70;99.90
16825;DHT22;8529;48.108;-1.706;2023-07-31T05:54:24;18.70;99.90
16825;DHT22;8529;48.108;-1.706;2023-07-31T05:56:51;18.70;99.90
16825;DHT22;8529;48.108;-1.706;2023-07-31T05:59:19;18.70;99.90
16825;DHT22;8529;48.108;-1.706;2023-07-31T06:01:46;18.70;99.90
16825;DHT22;8529;48.108;-1.706;2023-07-31T06:04:13;18.70;99.90
16825;DHT22;8529;48.108;-1.706;2023-07-31T06:09:07;18.70;99.90
16825;DHT22;8529;48.108;-1.706;2023-07-31T06:11:34;18.70;99.90
16825;DHT22;8529;48.108;-1.706;2023-07-31T06:14:01;18.70;99.90
16825;DHT22;8529;48.108;-1.706;2023-07-31T06:16:29;18.70;99.90
16825;DHT22;8529;48.108;-1.706;2023-07-31T06:18:56;18.80;99.90
16825;DHT22;8529;48.108;-1.706;2023-07-31T06:21:22;18.80;99.90
16825;DHT22;8529;48.108;-1.706;2023-07-31T06:23:49;18.80;99.90
16825;DHT22;8529;48.108;-1.706;2023-07-31T06:26:16;18.80;99.90
16825;DHT22;8529;48.108;-1.706;2023-07-31T06:28:43;18.80;99.90
16825;DHT22;8529;48.108;-1.706;2023-07-31T06:33:39;18.90;99.90
16825;DHT22;8529;48.108;-1.706;2023-07-31T06:45:54;18.90;99.90
16825;DHT22;8529;48.108;-1.706;2023-07-31T06:48:21;18.90;99.90
16825;DHT22;8529;48.108;-1.706;2023-07-31T07:22:45;18.70;99.90
16825;DHT22;8529;48.108;-1.706;2023-07-31T07:25:13;18.90;99.90
16825;DHT22;8529;48.108;-1.706;2023-07-31T07:27:40;18.90;99.90
16825;DHT22;8529;48.108;-1.706;2023-07-31T07:30:08;18.90;99.90
16825;DHT22;8529;48.108;-1.706;2023-07-31T07:32:35;18.90;99.90
16825;DHT22;8529;48.108;-1.706;2023-07-31T07:35:02;18.90;99.90
16825;DHT22;8529;48.108;-1.706;2023-07-31T07:39:56;19.00;99.90
16825;DHT22;8529;48.108;-1.706;2023-07-31T07:42:24;19.00;99.90
16825;DHT22;8529;48.108;-1.706;2023-07-31T07:44:51;19.00;99.90
16825;DHT22;8529;48.108;-1.706;2023-07-31T07:47:18;19.00;99.90
16825;DHT22;8529;48.108;-1.706;2023-07-31T07:52:12;19.00;99.90
16825;DHT22;8529;48.108;-1.706;2023-07-31T07:54:39;19.00;99.90
16825;DHT22;8529;48.108;-1.706;2023-07-31T07:57:06;19.00;99.90
16825;DHT22;8529;48.108;-1.706;2023-07-31T07:59:34;19.00;99.90
16825;DHT22;8529;48.108;-1.706;2023-07-31T08:02:01;19.00;99.90
16825;DHT22;8529;48.108;-1.706;2023-07-31T08:04:28;19.10;99.90
16825;DHT22;8529;48.108;-1.706;2023-07-31T08:06:54;19.00;99.90
16825;DHT22;8529;48.108;-1.706;2023-07-31T08:09:21;19.10;99.90
16825;DHT22;8529;48.108;-1.706;2023-07-31T08:11:48;19.00;99.90
16825;DHT22;8529;48.108;-1.706;2023-07-31T08:14:15;19.10;99.90
16825;DHT22;8529;48.108;-1.706;2023-07-31T08:16:43;19.10;99.90
16825;DHT22;8529;48.108;-1.706;2023-07-31T08:19:11;19.00;99.90
16825;DHT22;8529;48.108;-1.706;2023-07-31T08:21:38;19.10;99.90
16825;DHT22;8529;48.108;-1.706;2023-07-31T08:24:05;19.10;99.90
16825;DHT22;8529;48.108;-1.706;2023-07-31T08:29:00;19.10;99.90
16825;DHT22;8529;48.108;-1.706;2023-07-31T08:31:27;19.10;99.90
16825;DHT22;8529;48.108;-1.706;2023-07-31T08:33:56;19.10;99.90
16825;DHT22;8529;48.108;-1.706;2023-07-31T08:36:23;19.10;99.90
16825;DHT22;8529;48.108;-1.706;2023-07-31T08:38:49;19.10;99.90
16825;DHT22;8529;48.108;-1.706;2023-07-31T08:56:04;19.30;99.90
16825;DHT22;8529;48.108;-1.706;2023-07-31T09:15:54;18.90;99.90
16825;DHT22;8529;48.108;-1.706;2023-07-31T09:18:21;19.30;99.90
16825;DHT22;8529;48.108;-1.706;2023-07-31T09:21:00;19.30;99.90
16825;DHT22;8529;48.108;-1.706;2023-07-31T09:23:40;19.30;99.90
16825;DHT22;8529;48.108;-1.706;2023-07-31T09:31:01;19.40;99.90
16825;DHT22;8529;48.108;-1.706;2023-07-31T09:33:28;19.40;99.90
16825;DHT22;8529;48.108;-1.706;2023-07-31T09:35:58;19.40;99.90
16825;DHT22;8529;48.108;-1.706;2023-07-31T09:38:26;19.50;99.90
16825;DHT22;8529;48.108;-1.706;2023-07-31T09:40:55;19.50;99.90
16825;DHT22;8529;48.108;-1.706;2023-07-31T09:43:25;19.60;99.90
16825;DHT22;8529;48.108;-1.706;2023-07-31T09:45:55;19.60;99.90
16825;DHT22;8529;48.108;-1.706;2023-07-31T09:48:24;19.60;99.90
16825;DHT22;8529;48.108;-1.706;2023-07-31T09:50:53;19.60;99.90
16825;DHT22;8529;48.108;-1.706;2023-07-31T09:53:28;19.70;99.90
16825;DHT22;8529;48.108;-1.706;2023-07-31T09:55:58;19.70;99.90
16825;DHT22;8529;48.108;-1.706;2023-07-31T09:58:29;19.70;99.90
16825;DHT22;8529;48.108;-1.706;2023-07-31T10:00:57;19.70;99.90
16825;DHT22;8529;48.108;-1.706;2023-07-31T10:03:26;19.70;99.90
16825;DHT22;8529;48.108;-1.706;2023-07-31T10:05:56;19.70;99.90
16825;DHT22;8529;48.108;-1.706;2023-07-31T10:08:27;19.70;99.90
16825;DHT22;8529;48.108;-1.706;2023-07-31T10:13:27;19.90;99.90
16825;DHT22;8529;48.108;-1.706;2023-07-31T10:15:58;19.70;99.90
16825;DHT22;8529;48.108;-1.706;2023-07-31T10:18:25;19.60;99.90
16825;DHT22;8529;48.108;-1.706;2023-07-31T10:20:53;19.80;99.90
16825;DHT22;8529;48.108;-1.706;2023-07-31T10:23:22;19.60;99.90
16825;DHT22;8529;48.108;-1.706;2023-07-31T10:25:53;19.60;99.90
16825;DHT22;8529;48.108;-1.706;2023-07-31T10:28:22;19.50;99.90
16825;DHT22;8529;48.108;-1.706;2023-07-31T10:35:47;19.20;99.90
16825;DHT22;8529;48.108;-1.706;2023-07-31T10:38:14;19.60;99.90
16825;DHT22;8529;48.108;-1.706;2023-07-31T10:40:41;19.60;99.90
16825;DHT22;8529;48.108;-1.706;2023-07-31T10:43:08;19.50;99.90
16825;DHT22;8529;48.108;-1.706;2023-07-31T10:45:39;19.40;99.90
16825;DHT22;8529;48.108;-1.706;2023-07-31T10:48:11;19.70;99.90
16825;DHT22;8529;48.108;-1.706;2023-07-31T10:50:46;19.40;99.90
16825;DHT22;8529;48.108;-1.706;2023-07-31T10:53:22;19.40;99.90
16825;DHT22;8529;48.108;-1.706;2023-07-31T11:00:47;19.40;99.90
16825;DHT22;8529;48.108;-1.706;2023-07-31T11:03:15;19.60;99.90
16825;DHT22;8529;48.108;-1.706;2023-07-31T11:05:44;19.60;99.90
16825;DHT22;8529;48.108;-1.706;2023-07-31T11:08:13;19.70;99.90
16825;DHT22;8529;48.108;-1.706;2023-07-31T11:10:40;19.70;99.90
16825;DHT22;8529;48.108;-1.706;2023-07-31T11:13:07;19.70;99.90
16825;DHT22;8529;48.108;-1.706;2023-07-31T11:18:02;19.80;99.90
16825;DHT22;8529;48.108;-1.706;2023-07-31T11:20:31;19.80;99.90
16825;DHT22;8529;48.108;-1.706;2023-07-31T11:23:00;19.80;99.90
16825;DHT22;8529;48.108;-1.706;2023-07-31T11:25:29;19.80;99.90
16825;DHT22;8529;48.108;-1.706;2023-07-31T11:32:56;20.10;99.90
16825;DHT22;8529;48.108;-1.706;2023-07-31T11:35:24;19.90;99.90
16825;DHT22;8529;48.108;-1.706;2023-07-31T11:37:51;19.70;99.90
16825;DHT22;8529;48.108;-1.706;2023-07-31T11:55:10;19.50;99.90
16825;DHT22;8529;48.108;-1.706;2023-07-31T11:57:39;19.80;99.90
16825;DHT22;8529;48.108;-1.706;2023-07-31T12:00:08;19.80;99.90
16825;DHT22;8529;48.108;-1.706;2023-07-31T12:07:48;19.70;99.90
16825;DHT22;8529;48.108;-1.706;2023-07-31T12:15:32;19.90;99.90
16825;DHT22;8529;48.108;-1.706;2023-07-31T12:17:59;20.10;99.90
16825;DHT22;8529;48.108;-1.706;2023-07-31T12:27:56;20.10;99.90
16825;DHT22;8529;48.108;-1.706;2023-07-31T12:42:44;19.40;99.90
16825;DHT22;8529;48.108;-1.706;2023-07-31T12:45:11;20.00;99.90
16825;DHT22;8529;48.108;-1.706;2023-07-31T12:47:38;20.10;99.90
16825;DHT22;8529;48.108;-1.706;2023-07-31T12:50:06;20.00;99.90
16825;DHT22;8529;48.108;-1.706;2023-07-31T12:52:33;20.00;99.90
16825;DHT22;8529;48.108;-1.706;2023-07-31T12:59:56;20.10;99.90
16825;DHT22;8529;48.108;-1.706;2023-07-31T13:02:23;20.00;99.90
16825;DHT22;8529;48.108;-1.706;2023-07-31T13:04:50;20.00;99.90
16825;DHT22;8529;48.108;-1.706;2023-07-31T13:07:17;20.00;99.90
16825;DHT22;8529;48.108;-1.706;2023-07-31T13:09:44;20.00;99.90
16825;DHT22;8529;48.108;-1.706;2023-07-31T13:12:11;20.10;99.90
16825;DHT22;8529;48.108;-1.706;2023-07-31T13:14:39;20.10;99.90
16825;DHT22;8529;48.108;-1.706;2023-07-31T13:17:06;20.00;99.90
16825;DHT22;8529;48.108;-1.706;2023-07-31T13:19:33;20.20;99.90
16825;DHT22;8529;48.108;-1.706;2023-07-31T13:22:00;20.10;99.90
16825;DHT22;8529;48.108;-1.706;2023-07-31T13:24:27;22.20;99.90
16825;DHT22;8529;48.108;-1.706;2023-07-31T13:26:55;20.00;99.90
16825;DHT22;8529;48.108;-1.706;2023-07-31T13:29:22;20.10;99.90
16825;DHT22;8529;48.108;-1.706;2023-07-31T13:31:52;20.00;99.90
16825;DHT22;8529;48.108;-1.706;2023-07-31T13:34:19;20.00;99.90
16825;DHT22;8529;48.108;-1.706;2023-07-31T13:36:46;20.00;99.90
16825;DHT22;8529;48.108;-1.706;2023-07-31T13:39:12;20.00;99.90
16825;DHT22;8529;48.108;-1.706;2023-07-31T13:41:39;20.00;99.90
16825;DHT22;8529;48.108;-1.706;2023-07-31T13:44:07;20.00;99.90
16825;DHT22;8529;48.108;-1.706;2023-07-31T13:46:34;20.00;99.90
16825;DHT22;8529;48.108;-1.706;2023-07-31T13:49:02;20.00;99.90
16825;DHT22;8529;48.108;-1.706;2023-07-31T13:51:29;19.90;99.90
16825;DHT22;8529;48.108;-1.706;2023-07-31T13:53:56;19.90;99.90
16825;DHT22;8529;48.108;-1.706;2023-07-31T13:56:22;19.90;99.90
16825;DHT22;8529;48.108;-1.706;2023-07-31T14:01:17;19.70;99.90
16825;DHT22;8529;48.108;-1.706;2023-07-31T14:03:44;19.80;99.90
16825;DHT22;8529;48.108;-1.706;2023-07-31T14:06:12;19.80;99.90
16825;DHT22;8529;48.108;-1.706;2023-07-31T14:11:06;19.90;99.90
16825;DHT22;8529;48.108;-1.706;2023-07-31T14:13:33;19.70;99.90
16825;DHT22;8529;48.108;-1.706;2023-07-31T14:18:27;19.50;99.90
16825;DHT22;8529;48.108;-1.706;2023-07-31T14:25:50;19.70;99.90
16825;DHT22;8529;48.108;-1.706;2023-07-31T14:28:16;19.60;99.90
16825;DHT22;8529;48.108;-1.706;2023-07-31T14:33:11;19.50;99.90
16825;DHT22;8529;48.108;-1.706;2023-07-31T14:52:50;19.50;99.90
16825;DHT22;8529;48.108;-1.706;2023-07-31T15:00:13;19.90;99.90
16825;DHT22;8529;48.108;-1.706;2023-07-31T15:02:42;19.50;99.90
16825;DHT22;8529;48.108;-1.706;2023-07-31T15:05:09;19.20;99.90
16825;DHT22;8529;48.108;-1.706;2023-07-31T15:07:36;19.60;99.90
16825;DHT22;8529;48.108;-1.706;2023-07-31T15:17:27;19.60;99.90
16825;DHT22;8529;48.108;-1.706;2023-07-31T15:19:55;19.70;99.90
16825;DHT22;8529;48.108;-1.706;2023-07-31T15:32:13;19.70;99.90
16825;DHT22;8529;48.108;-1.706;2023-07-31T15:34:40;19.70;99.90
16825;DHT22;8529;48.108;-1.706;2023-07-31T15:37:07;19.70;99.90
16825;DHT22;8529;48.108;-1.706;2023-07-31T15:39:33;19.70;99.90
16825;DHT22;8529;48.108;-1.706;2023-07-31T15:42:00;19.70;99.90
16825;DHT22;8529;48.108;-1.706;2023-07-31T15:44:27;19.60;99.90
16825;DHT22;8529;48.108;-1.706;2023-07-31T15:46:54;19.70;99.90
16825;DHT22;8529;48.108;-1.706;2023-07-31T15:49:22;19.70;99.90
16825;DHT22;8529;48.108;-1.706;2023-07-31T15:51:49;19.60;99.90
16825;DHT22;8529;48.108;-1.706;2023-07-31T15:54:16;19.60;99.90
16825;DHT22;8529;48.108;-1.706;2023-07-31T15:56:44;19.60;99.90
16825;DHT22;8529;48.108;-1.706;2023-07-31T15:59:11;19.60;99.90
16825;DHT22;8529;48.108;-1.706;2023-07-31T16:16:22;19.60;99.90
16825;DHT22;8529;48.108;-1.706;2023-07-31T16:18:52;19.50;99.90
16825;DHT22;8529;48.108;-1.706;2023-07-31T16:21:19;19.60;99.90
16825;DHT22;8529;48.108;-1.706;2023-07-31T16:28:42;19.60;99.90
16825;DHT22;8529;48.108;-1.706;2023-07-31T16:31:09;19.60;99.90
16825;DHT22;8529;48.108;-1.706;2023-07-31T16:33:35;19.60;99.90
16825;DHT22;8529;48.108;-1.706;2023-07-31T16:36:03;19.60;99.90
16825;DHT22;8529;48.108;-1.706;2023-07-31T16:38:29;19.60;99.90
16825;DHT22;8529;48.108;-1.706;2023-07-31T16:40:58;19.60;99.90
16825;DHT22;8529;48.108;-1.706;2023-07-31T16:45:55;19.60;99.90
16825;DHT22;8529;48.108;-1.706;2023-07-31T16:48:22;19.60;99.90
16825;DHT22;8529;48.108;-1.706;2023-07-31T16:50:49;19.60;99.90
16825;DHT22;8529;48.108;-1.706;2023-07-31T17:03:06;19.50;99.90
16825;DHT22;8529;48.108;-1.706;2023-07-31T17:05:33;19.60;99.90
16825;DHT22;8529;48.108;-1.706;2023-07-31T17:08:01;19.50;99.90
16825;DHT22;8529;48.108;-1.706;2023-07-31T17:15:24;19.40;99.90
16825;DHT22;8529;48.108;-1.706;2023-07-31T17:32:37;19.20;99.90
16825;DHT22;8529;48.108;-1.706;2023-07-31T17:37:31;19.50;99.90
16825;DHT22;8529;48.108;-1.706;2023-07-31T17:39:58;19.50;99.90
16825;DHT22;8529;48.108;-1.706;2023-07-31T17:42:25;19.50;99.90
16825;DHT22;8529;48.108;-1.706;2023-07-31T17:44:52;19.50;99.90
16825;DHT22;8529;48.108;-1.706;2023-07-31T17:47:19;19.50;99.90
16825;DHT22;8529;48.108;-1.706;2023-07-31T17:49:47;19.40;99.90
16825;DHT22;8529;48.108;-1.706;2023-07-31T17:52:15;19.50;99.90
16825;DHT22;8529;48.108;-1.706;2023-07-31T17:54:42;19.50;99.90
16825;DHT22;8529;48.108;-1.706;2023-07-31T17:57:09;19.40;99.90
16825;DHT22;8529;48.108;-1.706;2023-07-31T17:59:36;19.50;99.90
16825;DHT22;8529;48.108;-1.706;2023-07-31T18:04:30;19.40;99.90
16825;DHT22;8529;48.108;-1.706;2023-07-31T18:06:58;19.40;99.90
16825;DHT22;8529;48.108;-1.706;2023-07-31T18:09:25;19.40;99.90
16825;DHT22;8529;48.108;-1.706;2023-07-31T18:11:52;19.40;99.90
16825;DHT22;8529;48.108;-1.706;2023-07-31T18:14:19;19.40;99.90
16825;DHT22;8529;48.108;-1.706;2023-07-31T18:16:50;19.40;99.90
16825;DHT22;8529;48.108;-1.706;2023-07-31T18:19:16;19.40;99.90
16825;DHT22;8529;48.108;-1.706;2023-07-31T18:21:43;19.50;99.90
16825;DHT22;8529;48.108;-1.706;2023-07-31T18:24:12;19.40;99.90
16825;DHT22;8529;48.108;-1.706;2023-07-31T18:26:39;19.40;99.90
16825;DHT22;8529;48.108;-1.706;2023-07-31T18:29:05;19.40;99.90
16825;DHT22;8529;48.108;-1.706;2023-07-31T18:34:00;19.40;99.90
16825;DHT22;8529;48.108;-1.706;2023-07-31T18:36:26;19.70;99.90
16825;DHT22;8529;48.108;-1.706;2023-07-31T18:38:53;19.40;99.90
16825;DHT22;8529;48.108;-1.706;2023-07-31T18:41:22;19.40;99.90
16825;DHT22;8529;48.108;-1.706;2023-07-31T18:43:48;19.40;99.90
16825;DHT22;8529;48.108;-1.706;2023-07-31T18:46:15;19.40;99.90
16825;DHT22;8529;48.108;-1.706;2023-07-31T18:48:43;19.30;99.90
16825;DHT22;8529;48.108;-1.706;2023-07-31T18:51:09;19.40;99.90
16825;DHT22;8529;48.108;-1.706;2023-07-31T18:53:36;19.30;99.90
16825;DHT22;8529;48.108;-1.706;2023-07-31T18:56:03;19.90;99.90
16825;DHT22;8529;48.108;-1.706;2023-07-31T18:58:32;19.30;99.90
16825;DHT22;8529;48.108;-1.706;2023-07-31T19:03:26;19.30;99.90
16825;DHT22;8529;48.108;-1.706;2023-07-31T19:06:00;19.30;99.90
16825;DHT22;8529;48.108;-1.706;2023-07-31T19:08:28;19.30;99.90
16825;DHT22;8529;48.108;-1.706;2023-07-31T19:10:55;19.30;99.90
16825;DHT22;8529;48.108;-1.706;2023-07-31T19:13:22;19.30;99.90
16825;DHT22;8529;48.108;-1.706;2023-07-31T19:15:50;19.30;99.90
16825;DHT22;8529;48.108;-1.706;2023-07-31T19:18:18;19.30;99.90
16825;DHT22;8529;48.108;-1.706;2023-07-31T19:20:45;19.30;99.90
16825;DHT22;8529;48.108;-1.706;2023-07-31T19:23:12;19.30;99.90
16825;DHT22;8529;48.108;-1.706;2023-07-31T19:25:39;19.20;99.90
16825;DHT22;8529;48.108;-1.706;2023-07-31T19:28:07;19.20;99.90
16825;DHT22;8529;48.108;-1.706;2023-07-31T19:30:34;19.20;99.90
16825;DHT22;8529;48.108;-1.706;2023-07-31T19:33:02;19.20;99.90
16825;DHT22;8529;48.108;-1.706;2023-07-31T19:35:29;19.20;99.90
16825;DHT22;8529;48.108;-1.706;2023-07-31T19:37:56;19.20;99.90
16825;DHT22;8529;48.108;-1.706;2023-07-31T19:40:23;19.10;99.90
16825;DHT22;8529;48.108;-1.706;2023-07-31T19:42:51;19.10;99.90
16825;DHT22;8529;48.108;-1.706;2023-07-31T19:45:20;19.70;99.90
16825;DHT22;8529;48.108;-1.706;2023-07-31T19:47:47;19.20;99.90
16825;DHT22;8529;48.108;-1.706;2023-07-31T19:57:38;19.10;99.90
16825;DHT22;8529;48.108;-1.706;2023-07-31T20:00:06;19.10;99.90
16825;DHT22;8529;48.108;-1.706;2023-07-31T20:05:00;19.10;99.90
16825;DHT22;8529;48.108;-1.706;2023-07-31T20:07:28;19.10;99.90
16825;DHT22;8529;48.108;-1.706;2023-07-31T20:09:55;19.00;99.90
16825;DHT22;8529;48.108;-1.706;2023-07-31T20:12:24;19.10;99.90
16825;DHT22;8529;48.108;-1.706;2023-07-31T20:17:20;19.10;99.90
16825;DHT22;8529;48.108;-1.706;2023-07-31T20:19:48;19.10;99.90
16825;DHT22;8529;48.108;-1.706;2023-07-31T20:22:15;19.10;99.90
16825;DHT22;8529;48.108;-1.706;2023-07-31T20:24:43;19.90;99.90
16825;DHT22;8529;48.108;-1.706;2023-07-31T20:27:10;19.10;99.90
16825;DHT22;8529;48.108;-1.706;2023-07-31T20:29:37;19.00;99.90
16825;DHT22;8529;48.108;-1.706;2023-07-31T20:32:06;19.10;99.90
16825;DHT22;8529;48.108;-1.706;2023-07-31T20:34:33;19.00;99.90
16825;DHT22;8529;48.108;-1.706;2023-07-31T20:37:00;19.00;99.90
16825;DHT22;8529;48.108;-1.706;2023-07-31T20:41:55;19.80;99.90
16825;DHT22;8529;48.108;-1.706;2023-07-31T20:44:22;19.00;99.90
16825;DHT22;8529;48.108;-1.706;2023-07-31T20:46:49;19.00;99.90
16825;DHT22;8529;48.108;-1.706;2023-07-31T20:51:43;19.40;99.90
16825;DHT22;8529;48.108;-1.706;2023-07-31T20:56:40;19.10;99.90
16825;DHT22;8529;48.108;-1.706;2023-07-31T20:59:08;19.00;99.90
16825;DHT22;8529;48.108;-1.706;2023-07-31T21:01:35;19.00;99.90
16825;DHT22;8529;48.108;-1.706;2023-07-31T21:04:02;19.00;99.90
16825;DHT22;8529;48.108;-1.706;2023-07-31T21:06:31;19.10;99.90
16825;DHT22;8529;48.108;-1.706;2023-07-31T21:08:58;19.00;99.90
16825;DHT22;8529;48.108;-1.706;2023-07-31T21:13:52;19.00;99.90
16825;DHT22;8529;48.108;-1.706;2023-07-31T21:16:20;19.10;99.90
16825;DHT22;8529;48.108;-1.706;2023-07-31T21:33:42;17.60;99.90
16825;DHT22;8529;48.108;-1.706;2023-07-31T21:36:08;19.10;99.90
16825;DHT22;8529;48.108;-1.706;2023-07-31T21:43:30;19.10;99.90
16825;DHT22;8529;48.108;-1.706;2023-07-31T21:48:24;19.20;99.90
16825;DHT22;8529;48.108;-1.706;2023-07-31T21:50:52;19.10;99.90
16825;DHT22;8529;48.108;-1.706;2023-07-31T21:53:19;19.00;99.90
16825;DHT22;8529;48.108;-1.706;2023-07-31T21:55:46;19.00;99.90
16825;DHT22;8529;48.108;-1.706;2023-07-31T21:58:13;19.00;99.90
16825;DHT22;8529;48.108;-1.706;2023-07-31T22:00:41;19.10;99.90
16825;DHT22;8529;48.108;-1.706;2023-07-31T22:05:35;19.00;99.90
16825;DHT22;8529;48.108;-1.706;2023-07-31T22:08:03;19.00;99.90
16825;DHT22;8529;48.108;-1.706;2023-07-31T22:15:25;19.00;99.90
16825;DHT22;8529;48.108;-1.706;2023-07-31T22:17:52;18.70;99.90
16825;DHT22;8529;48.108;-1.706;2023-07-31T22:20:18;18.90;99.90
16825;DHT22;8529;48.108;-1.706;2023-07-31T22:25:14;19.10;99.90
16825;DHT22;8529;48.108;-1.706;2023-07-31T22:27:41;19.00;99.90
16825;DHT22;8529;48.108;-1.706;2023-07-31T22:30:09;19.00;99.90
16825;DHT22;8529;48.108;-1.706;2023-07-31T22:32:36;19.20;99.90
16825;DHT22;8529;48.108;-1.706;2023-07-31T22:35:03;19.00;99.90